Time;durP1;ratioP1;P1;durP2;ratioP2;P2;SDS_P1;SDS_P2;PMS_P1;PMS_P2;Temp;Humidity;BMP_temperature;BMP_pressure;BME280_temperature;BME280_humidity;BME280_pressure;Samples;Min_cycle;Max_cycle;Signal;HPM_P1;HPM_P2
2022/10/16 00:01:19;;;;;;;1.60;1.50;;;20.40;71.10;;;;;;5083905;27;20485;-87
2022/10/16 00:03:47;;;;;;;4.93;2.00;;;20.20;72.30;;;;;;5115710;27;20438;-88
2022/10/16 00:06:16;;;;;;;1.90;1.60;;;20.20;72.60;;;;;;5108830;27;20492;-89
2022/10/16 00:08:44;;;;;;;2.10;1.90;;;20.30;72.90;;;;;;5115689;27;20550;-89
2022/10/16 00:11:13;;;;;;;1.93;1.83;;;20.30;72.70;;;;;;5093638;27;20958;-88
2022/10/16 00:13:42;;;;;;;1.80;1.70;;;20.30;73.00;;;;;;5107955;27;20799;-88
2022/10/16 00:16:10;;;;;;;1.77;1.60;;;20.50;72.40;;;;;;5115585;27;20534;-88
2022/10/16 00:18:39;;;;;;;2.97;2.17;;;20.50;71.80;;;;;;5081701;27;20521;-88
2022/10/16 00:21:09;;;;;;;1.90;1.80;;;20.60;71.50;;;;;;5115666;27;21065;-88
2022/10/16 00:23:57;;;;;;;1.73;1.63;;;20.50;71.80;;;;;;5108987;27;20447;-87
2022/10/16 00:26:24;;;;;;;4.20;1.80;;;20.40;72.00;;;;;;5112390;27;20507;-88
2022/10/16 00:28:52;;;;;;;1.93;1.83;;;20.50;72.10;;;;;;5123972;27;20576;-90
2022/10/16 00:31:21;;;;;;;1.70;1.60;;;20.70;71.70;;;;;;5099890;27;20993;-89
2022/10/16 00:33:50;;;;;;;1.70;1.60;;;20.60;71.40;;;;;;5092102;27;20434;-87
2022/10/16 00:36:20;;;;;;;4.90;1.70;;;20.80;70.80;;;;;;5113532;27;20458;-88
2022/10/16 00:38:47;;;;;;;2.00;1.90;;;20.90;70.60;;;;;;5081082;28;20447;-88
2022/10/16 00:41:18;;;;;;;1.90;1.80;;;21.10;70.30;;;;;;5107590;27;20494;-89
2022/10/16 00:43:47;;;;;;;10.30;2.00;;;20.70;71.00;;;;;;5122864;27;20455;-89
2022/10/16 00:46:20;;;;;;;2.23;1.47;;;20.60;71.50;;;;;;5115989;27;21222;-88
2022/10/16 00:48:53;;;;;;;2.27;1.60;;;20.30;72.90;;;;;;5090858;27;20446;-88
2022/10/16 00:51:24;;;;;;;1.63;1.40;;;20.20;73.50;;;;;;5113570;27;20708;-88
2022/10/16 00:53:51;;;;;;;2.60;1.43;;;20.10;73.10;;;;;;5115200;27;20548;-86
2022/10/16 00:56:19;;;;;;;1.47;1.10;;;20.00;73.10;;;;;;5116726;27;20457;-88
2022/10/16 00:58:46;;;;;;;1.50;1.20;;;19.70;74.30;;;;;;5102882;27;20535;-86
2022/10/16 01:01:14;;;;;;;1.37;1.27;;;19.80;74.70;;;;;;5115188;27;20477;-88
2022/10/16 01:03:41;;;;;;;1.70;1.60;;;20.00;74.10;;;;;;5104248;27;20442;-87
2022/10/16 01:06:23;;;;;;;2.07;1.50;;;20.10;73.00;;;;;;5115942;27;20460;-86
2022/10/16 01:09:08;;;;;;;1.40;1.30;;;20.00;73.90;;;;;;5100957;27;20455;-89
2022/10/16 01:11:41;;;;;;;1.60;1.40;;;20.10;73.50;;;;;;5098840;27;20466;-90
2022/10/16 01:14:20;;;;;;;3.73;1.20;;;20.40;72.90;;;;;;5121059;27;20506;-87
2022/10/16 01:16:53;;;;;;;8.57;1.73;;;20.60;72.00;;;;;;5123195;27;20446;-87
2022/10/16 01:19:34;;;;;;;1.63;1.53;;;20.60;71.70;;;;;;5105797;27;20525;-88
2022/10/16 01:22:05;;;;;;;1.43;1.33;;;20.80;70.90;;;;;;5113595;27;20502;-88
2022/10/16 01:24:38;;;;;;;1.20;1.10;;;20.80;70.90;;;;;;5129091;27;20491;-88
2022/10/16 01:27:12;;;;;;;1.43;1.33;;;20.70;71.00;;;;;;5121090;27;20435;-88
2022/10/16 01:29:49;;;;;;;3.77;1.40;;;20.30;72.10;;;;;;5090816;27;20461;-88
2022/10/16 01:32:21;;;;;;;3.10;1.13;;;20.40;71.90;;;;;;5114413;27;20522;-88
2022/10/16 01:34:51;;;;;;;3.20;0.90;;;20.40;71.40;;;;;;5111345;27;20828;-87
2022/10/16 01:37:37;;;;;;;1.53;0.90;;;20.30;70.90;;;;;;5114715;27;20443;-87
2022/10/16 01:40:10;;;;;;;1.10;1.00;;;20.20;71.50;;;;;;5105738;27;20466;-89
2022/10/16 01:42:42;;;;;;;0.80;0.80;;;20.10;71.60;;;;;;5096810;27;20463;-87
2022/10/16 01:45:13;;;;;;;0.80;0.80;;;20.30;71.00;;;;;;5115504;27;20458;-87
2022/10/16 01:47:41;;;;;;;0.80;0.80;;;20.20;70.50;;;;;;5089204;27;20588;-88
2022/10/16 01:50:09;;;;;;;5.10;0.90;;;20.20;71.30;;;;;;5117992;27;20556;-88
2022/10/16 01:52:40;;;;;;;0.80;0.77;;;20.30;71.30;;;;;;5107337;27;20525;-88
2022/10/16 01:55:11;;;;;;;1.10;0.90;;;20.40;71.10;;;;;;5118834;27;20453;-89
2022/10/16 01:57:43;;;;;;;2.03;0.90;;;20.40;70.90;;;;;;5130973;27;20541;-87
2022/10/16 02:00:14;;;;;;;1.10;1.00;;;20.20;71.40;;;;;;5113163;27;20495;-89
2022/10/16 02:02:43;;;;;;;0.93;0.80;;;20.20;71.40;;;;;;5099353;27;20525;-89
2022/10/16 02:05:17;;;;;;;2.80;0.90;;;20.30;71.60;;;;;;5112751;27;20505;-89
2022/10/16 02:07:44;;;;;;;1.20;1.10;;;20.40;71.40;;;;;;5113304;28;20832;-89
2022/10/16 02:10:11;;;;;;;2.13;0.90;;;20.50;70.80;;;;;;5090237;28;20552;-87
2022/10/16 02:12:45;;;;;;;1.10;1.00;;;20.70;70.40;;;;;;5099591;28;21151;-88
2022/10/16 02:15:12;;;;;;;1.10;1.00;;;20.80;70.10;;;;;;5105823;28;20881;-88
2022/10/16 02:17:39;;;;;;;1.10;1.00;;;20.90;69.70;;;;;;5112856;28;20473;-88
2022/10/16 02:20:07;;;;;;;1.10;1.00;;;20.90;69.40;;;;;;5095822;28;20572;-88
2022/10/16 02:22:38;;;;;;;1.20;1.10;;;21.00;69.20;;;;;;5100803;28;20540;-88
2022/10/16 02:25:10;;;;;;;1.00;0.90;;;21.00;68.90;;;;;;5112315;27;20434;-88
2022/10/16 02:27:47;;;;;;;2.80;1.20;;;21.10;68.70;;;;;;5092335;27;20531;-88
2022/10/16 02:30:21;;;;;;;1.27;0.80;;;21.00;68.70;;;;;;5119197;27;20570;-88
2022/10/16 02:32:50;;;;;;;1.53;1.13;;;21.10;68.90;;;;;;5092203;27;20438;-88
2022/10/16 02:35:19;;;;;;;1.10;1.00;;;21.10;68.50;;;;;;5086677;27;20482;-88
2022/10/16 02:37:48;;;;;;;3.17;0.93;;;21.00;68.70;;;;;;5128248;27;20454;-89
2022/10/16 02:40:16;;;;;;;1.10;1.00;;;20.90;68.70;;;;;;5114930;27;21232;-89
2022/10/16 02:42:44;;;;;;;1.13;0.97;;;20.90;68.90;;;;;;5109595;27;20530;-88
2022/10/16 02:45:12;;;;;;;1.20;1.10;;;20.90;69.10;;;;;;5103838;28;20482;-89
2022/10/16 02:47:39;;;;;;;1.40;1.07;;;20.80;68.90;;;;;;5083675;27;20450;-88
2022/10/16 02:50:07;;;;;;;1.50;1.00;;;20.70;69.70;;;;;;5109806;27;20928;-89
2022/10/16 02:52:35;;;;;;;3.23;1.20;;;20.70;70.20;;;;;;5127066;27;20928;-88
2022/10/16 02:55:02;;;;;;;1.10;1.00;;;20.70;70.20;;;;;;5121457;27;20469;-88
2022/10/16 02:57:29;;;;;;;4.10;1.40;;;20.80;70.10;;;;;;5091762;27;20461;-89
2022/10/16 02:59:57;;;;;;;1.20;1.00;;;20.90;70.00;;;;;;5099723;27;20472;-90
2022/10/16 03:02:25;;;;;;;1.30;1.20;;;20.90;69.60;;;;;;5089793;27;20444;-88
2022/10/16 03:04:52;;;;;;;1.70;1.33;;;21.00;69.30;;;;;;5118778;27;20451;-89
2022/10/16 03:07:19;;;;;;;3.70;1.43;;;20.80;69.80;;;;;;5120596;27;20470;-89
2022/10/16 03:09:46;;;;;;;2.60;1.50;;;20.80;69.60;;;;;;5122434;27;20461;-88
2022/10/16 03:12:13;;;;;;;1.37;1.27;;;20.80;69.80;;;;;;5106829;27;20936;-89
2022/10/16 03:14:40;;;;;;;1.73;1.50;;;20.80;69.80;;;;;;5119195;27;20446;-89
2022/10/16 03:17:09;;;;;;;1.77;1.57;;;20.90;69.50;;;;;;5102017;28;20443;-89
2022/10/16 03:19:36;;;;;;;6.83;1.63;;;21.00;69.00;;;;;;5109114;27;20449;-89
2022/10/16 03:22:03;;;;;;;4.77;1.87;;;21.00;68.50;;;;;;5102583;27;20496;-89
2022/10/16 03:24:30;;;;;;;1.73;1.63;;;21.10;68.30;;;;;;5100124;27;20496;-89
2022/10/16 03:26:57;;;;;;;3.30;1.40;;;21.10;68.90;;;;;;5123792;27;21157;-89
2022/10/16 03:29:25;;;;;;;3.80;1.60;;;21.10;67.80;;;;;;5119140;27;20975;-89
2022/10/16 03:31:53;;;;;;;3.10;1.83;;;21.00;67.90;;;;;;5125881;27;20555;-88
2022/10/16 03:34:22;;;;;;;3.00;1.80;;;20.90;68.40;;;;;;5116169;27;20482;-88
2022/10/16 03:36:49;;;;;;;1.93;1.43;;;20.90;68.20;;;;;;5118678;27;20457;-89
2022/10/16 03:39:17;;;;;;;1.57;1.47;;;20.80;68.50;;;;;;5116894;27;20446;-89
2022/10/16 03:41:44;;;;;;;3.70;1.87;;;20.80;68.50;;;;;;5098378;27;20494;-89
2022/10/16 03:44:11;;;;;;;2.30;1.93;;;20.80;68.50;;;;;;5101208;27;20461;-88
2022/10/16 03:46:38;;;;;;;1.57;1.47;;;20.80;68.50;;;;;;5117660;27;20435;-88
2022/10/16 03:49:05;;;;;;;2.20;2.00;;;20.80;69.00;;;;;;5096546;28;20544;-88
2022/10/16 03:51:34;;;;;;;4.50;1.80;;;20.70;69.10;;;;;;5123969;27;20462;-88
2022/10/16 03:54:01;;;;;;;1.90;1.80;;;20.80;69.10;;;;;;5120421;27;20453;-88
2022/10/16 03:56:29;;;;;;;1.73;1.60;;;20.60;70.10;;;;;;5100960;27;20614;-89
2022/10/16 03:58:56;;;;;;;2.47;2.27;;;20.70;69.70;;;;;;5117460;27;20465;-88
2022/10/16 04:01:23;;;;;;;3.97;2.17;;;20.80;69.40;;;;;;5091944;27;21035;-88
2022/10/16 04:03:50;;;;;;;2.00;1.60;;;20.80;69.20;;;;;;5124929;27;20442;-89
2022/10/16 04:06:17;;;;;;;2.10;1.70;;;20.90;69.00;;;;;;5115669;27;20487;-88
2022/10/16 04:08:45;;;;;;;5.93;1.93;;;21.00;68.90;;;;;;5117072;27;20515;-88
2022/10/16 04:11:13;;;;;;;2.17;1.70;;;21.00;68.70;;;;;;5091393;27;20466;-89
2022/10/16 04:13:41;;;;;;;2.43;1.80;;;21.10;68.60;;;;;;5106821;27;20480;-91
2022/10/16 04:16:08;;;;;;;1.60;1.50;;;21.10;68.40;;;;;;5119789;27;20451;-88
2022/10/16 04:18:35;;;;;;;1.70;1.60;;;21.10;68.20;;;;;;5107998;27;21473;-89
2022/10/16 04:21:06;;;;;;;4.60;2.07;;;21.10;68.10;;;;;;5116272;27;20470;-88
2022/10/16 04:23:34;;;;;;;1.83;1.63;;;21.10;68.30;;;;;;5089474;27;20446;-89
2022/10/16 04:26:02;;;;;;;2.13;1.63;;;20.90;68.90;;;;;;5120308;27;21001;-89
2022/10/16 04:28:29;;;;;;;6.10;1.60;;;20.80;69.80;;;;;;5100326;27;20459;-89
2022/10/16 04:30:57;;;;;;;1.93;1.63;;;20.80;69.40;;;;;;5091138;27;20561;-88
2022/10/16 04:33:24;;;;;;;2.00;1.70;;;20.90;69.20;;;;;;5118951;27;20461;-90
2022/10/16 04:35:58;;;;;;;2.50;2.00;;;21.00;69.00;;;;;;5116096;27;20507;-88
2022/10/16 04:38:25;;;;;;;2.40;2.13;;;21.00;68.40;;;;;;5113926;27;20470;-87
2022/10/16 04:40:52;;;;;;;3.23;2.87;;;21.00;68.50;;;;;;5115514;27;20541;-89
2022/10/16 04:43:21;;;;;;;5.83;3.20;;;20.90;68.90;;;;;;5085868;27;20542;-88
2022/10/16 04:45:50;;;;;;;3.13;2.00;;;20.90;68.70;;;;;;5115513;27;20866;-87
2022/10/16 04:48:17;;;;;;;2.80;1.87;;;20.80;69.30;;;;;;5083716;27;20455;-88
2022/10/16 04:50:45;;;;;;;2.00;1.90;;;20.80;69.00;;;;;;5116400;27;20511;-90
2022/10/16 04:53:12;;;;;;;2.37;1.80;;;20.70;69.40;;;;;;5100598;28;20442;-90
2022/10/16 04:55:39;;;;;;;2.77;1.67;;;20.70;69.40;;;;;;5117149;27;20495;-87
2022/10/16 04:58:06;;;;;;;2.60;1.80;;;20.70;69.20;;;;;;5102498;27;20541;-88
2022/10/16 05:00:35;;;;;;;1.63;1.53;;;20.70;69.00;;;;;;5120560;27;20459;-89
2022/10/16 05:03:05;;;;;;;4.40;2.00;;;20.50;69.70;;;;;;5099524;28;20504;-90
2022/10/16 05:05:32;;;;;;;1.80;1.70;;;20.50;69.70;;;;;;5099189;27;20635;-89
2022/10/16 05:08:00;;;;;;;1.70;1.60;;;20.60;69.50;;;;;;5098361;28;20438;-89
2022/10/16 05:10:27;;;;;;;4.70;2.03;;;20.60;69.60;;;;;;5114510;27;20504;-88
2022/10/16 05:12:55;;;;;;;3.60;2.50;;;20.60;70.00;;;;;;5107283;28;20451;-88
2022/10/16 05:15:24;;;;;;;2.87;2.57;;;20.60;70.20;;;;;;5106495;27;20877;-88
2022/10/16 05:17:54;;;;;;;2.63;2.40;;;20.70;70.30;;;;;;5116109;27;20450;-88
2022/10/16 05:20:22;;;;;;;2.80;2.40;;;20.80;69.80;;;;;;5115540;27;20461;-88
2022/10/16 05:22:50;;;;;;;2.10;2.00;;;20.80;69.10;;;;;;5115295;27;20915;-89
2022/10/16 05:25:18;;;;;;;2.73;2.20;;;20.70;69.00;;;;;;5097995;27;20439;-88
2022/10/16 05:27:48;;;;;;;1.87;1.50;;;20.60;69.10;;;;;;5086793;27;20454;-90
2022/10/16 05:30:16;;;;;;;2.17;1.97;;;20.50;70.10;;;;;;5098966;27;20573;-88
2022/10/16 05:32:48;;;;;;;8.50;1.97;;;20.40;70.10;;;;;;5088431;27;20458;-89
2022/10/16 05:35:18;;;;;;;3.50;1.80;;;20.50;69.90;;;;;;5107263;27;20456;-89
2022/10/16 05:37:46;;;;;;;2.10;1.90;;;20.50;69.80;;;;;;5118021;27;21762;-90
2022/10/16 05:40:14;;;;;;;2.30;1.40;;;20.40;69.90;;;;;;5099169;27;20565;-88
2022/10/16 05:42:41;;;;;;;2.20;1.50;;;20.40;69.50;;;;;;5087906;27;20521;-89
2022/10/16 05:45:11;;;;;;;1.60;1.50;;;20.40;69.90;;;;;;5115587;27;20501;-88
2022/10/16 05:47:38;;;;;;;4.80;1.70;;;20.40;69.80;;;;;;5099614;27;20537;-89
2022/10/16 05:50:06;;;;;;;7.20;3.97;;;20.40;70.50;;;;;;5114941;27;20519;-88
2022/10/16 05:52:34;;;;;;;4.53;3.93;;;20.50;70.20;;;;;;5100806;27;21049;-88
2022/10/16 05:55:01;;;;;;;14.00;11.00;;;20.50;70.20;;;;;;5116972;27;20500;-88
2022/10/16 05:57:29;;;;;;;126.07;78.40;;;20.60;69.80;;;;;;5116831;27;20477;-88
2022/10/16 05:59:56;;;;;;;86.67;53.00;;;20.70;69.40;;;;;;5098989;27;20453;-89
2022/10/16 06:02:23;;;;;;;40.23;30.50;;;20.80;68.90;;;;;;5096497;28;20723;-88
2022/10/16 06:04:53;;;;;;;26.17;18.30;;;20.80;68.80;;;;;;5102486;27;20450;-89
2022/10/16 06:07:20;;;;;;;15.10;9.13;;;20.60;69.40;;;;;;5115717;27;20526;-87
2022/10/16 06:09:51;;;;;;;7.43;5.93;;;20.10;70.90;;;;;;5103362;27;21154;-89
2022/10/16 06:12:19;;;;;;;9.47;8.07;;;20.10;71.70;;;;;;5095957;28;20466;-88
2022/10/16 06:14:47;;;;;;;15.00;6.37;;;20.20;72.00;;;;;;5087269;28;20450;-89
2022/10/16 06:17:14;;;;;;;9.67;7.30;;;20.40;70.60;;;;;;5103799;28;20477;-89
2022/10/16 06:19:41;;;;;;;17.40;7.97;;;20.60;70.90;;;;;;5092073;28;21734;-88
2022/10/16 06:22:08;;;;;;;14.07;7.00;;;20.70;69.60;;;;;;5111367;28;20492;-88
2022/10/16 06:24:36;;;;;;;9.33;7.43;;;20.80;69.20;;;;;;5111937;28;21007;-87
2022/10/16 06:27:06;;;;;;;19.67;12.60;;;20.90;68.80;;;;;;5114809;28;20446;-88
2022/10/16 06:29:33;;;;;;;25.90;17.90;;;21.00;68.50;;;;;;5115656;28;21044;-91
2022/10/16 06:32:00;;;;;;;20.27;14.60;;;21.00;68.20;;;;;;5111353;28;20921;-87
2022/10/16 06:34:28;;;;;;;36.90;22.93;;;20.90;68.40;;;;;;5110076;28;20545;-88
2022/10/16 06:36:55;;;;;;;32.87;16.43;;;20.60;69.50;;;;;;5111424;28;20446;-89
2022/10/16 06:39:22;;;;;;;18.83;11.90;;;20.50;70.20;;;;;;5110901;28;20446;-87
2022/10/16 06:41:49;;;;;;;9.23;6.27;;;20.50;70.40;;;;;;5082673;28;20470;-89
2022/10/16 06:44:18;;;;;;;6.63;5.80;;;20.60;69.80;;;;;;5113246;27;21220;-90
2022/10/16 06:46:45;;;;;;;9.37;6.40;;;20.70;69.40;;;;;;5079972;28;20485;-89
2022/10/16 06:49:12;;;;;;;8.40;6.30;;;20.80;69.10;;;;;;5113210;28;20452;-89
2022/10/16 06:51:40;;;;;;;10.03;7.60;;;20.90;68.90;;;;;;5084273;28;20912;-90
2022/10/16 06:54:08;;;;;;;10.03;8.73;;;20.90;68.50;;;;;;5097348;28;20946;-89
2022/10/16 06:56:35;;;;;;;10.53;8.20;;;20.90;68.60;;;;;;5112872;27;20445;-90
2022/10/16 06:59:03;;;;;;;9.40;8.43;;;20.90;68.40;;;;;;5106163;28;20446;-89
2022/10/16 07:01:32;;;;;;;13.60;10.00;;;20.80;68.70;;;;;;5110653;28;21097;-88
2022/10/16 07:04:00;;;;;;;13.20;11.33;;;20.80;69.50;;;;;;5109240;28;20925;-88
2022/10/16 07:06:31;;;;;;;14.97;13.40;;;20.70;69.70;;;;;;5092517;28;20443;-87
2022/10/16 07:08:58;;;;;;;8.10;7.30;;;20.80;69.50;;;;;;5109892;27;20575;-89
2022/10/16 07:11:25;;;;;;;13.10;11.03;;;20.70;69.60;;;;;;5095656;27;20453;-89
2022/10/16 07:13:53;;;;;;;26.50;22.70;;;20.70;70.10;;;;;;5113100;27;20930;-89
2022/10/16 07:16:21;;;;;;;18.70;16.73;;;20.40;71.70;;;;;;5092800;27;21015;-88
2022/10/16 07:18:51;;;;;;;20.90;15.77;;;20.20;72.70;;;;;;5120879;27;20449;-87
2022/10/16 07:21:20;;;;;;;5.53;5.00;;;20.30;72.50;;;;;;5113206;27;20480;-88
2022/10/16 07:23:51;;;;;;;4.80;3.10;;;20.40;71.90;;;;;;5120507;27;20449;-89
2022/10/16 07:26:18;;;;;;;3.60;3.37;;;20.50;71.60;;;;;;5115770;27;20490;-88
2022/10/16 07:28:45;;;;;;;2.50;2.00;;;20.60;71.20;;;;;;5121767;27;20579;-88
2022/10/16 07:31:16;;;;;;;17.80;8.50;;;20.70;70.90;;;;;;5115197;27;20482;-89
2022/10/16 07:33:44;;;;;;;11.70;5.93;;;20.70;71.30;;;;;;5111873;27;21033;-89
2022/10/16 07:36:13;;;;;;;9.47;7.90;;;20.90;71.00;;;;;;5099928;27;20503;-88
2022/10/16 07:38:42;;;;;;;14.90;6.50;;;21.00;71.20;;;;;;5112170;27;20863;-90
2022/10/16 07:41:11;;;;;;;5.60;4.17;;;21.10;70.40;;;;;;5114127;27;20466;-88
2022/10/16 07:43:39;;;;;;;10.47;3.97;;;21.20;70.20;;;;;;5112542;27;20450;-90
2022/10/16 07:46:07;;;;;;;4.83;3.63;;;21.30;70.20;;;;;;5098507;27;20466;-89
2022/10/16 07:48:35;;;;;;;12.07;6.03;;;21.40;70.10;;;;;;5109883;27;20484;-89
2022/10/16 07:51:04;;;;;;;9.60;5.23;;;21.60;70.00;;;;;;5114943;27;20996;-88
2022/10/16 07:53:34;;;;;;;9.50;5.73;;;21.70;69.60;;;;;;5117065;27;20550;-88
2022/10/16 07:56:02;;;;;;;15.50;5.13;;;21.80;69.40;;;;;;5113521;27;20450;-88
2022/10/16 07:58:29;;;;;;;16.07;8.83;;;21.90;69.30;;;;;;5094918;27;20441;-88
2022/10/16 08:00:57;;;;;;;23.10;12.33;;;21.80;69.30;;;;;;5116464;27;20826;-89
2022/10/16 08:03:24;;;;;;;13.37;8.47;;;21.90;68.90;;;;;;5082829;28;20534;-90
2022/10/16 08:05:52;;;;;;;19.03;10.80;;;21.90;68.70;;;;;;5122577;27;20459;-88
2022/10/16 08:08:20;;;;;;;13.40;6.83;;;22.00;68.70;;;;;;5098105;28;20447;-89
2022/10/16 08:10:48;;;;;;;18.57;9.07;;;22.00;68.90;;;;;;5115798;27;20478;-88
2022/10/16 08:13:15;;;;;;;9.40;7.40;;;21.90;69.00;;;;;;5115128;27;20489;-90
2022/10/16 08:15:42;;;;;;;6.37;3.60;;;21.80;69.40;;;;;;5114482;27;20807;-90
2022/10/16 08:18:11;;;;;;;6.10;3.60;;;21.60;69.90;;;;;;5119569;27;20500;-89
2022/10/16 08:20:39;;;;;;;5.30;3.23;;;21.50;70.10;;;;;;5089161;28;20647;-88
2022/10/16 08:23:07;;;;;;;10.47;9.20;;;21.70;70.10;;;;;;5115275;27;21142;-91
2022/10/16 08:25:36;;;;;;;4.53;4.13;;;21.80;69.80;;;;;;5116918;27;20526;-89
2022/10/16 08:28:06;;;;;;;7.27;4.50;;;21.80;69.50;;;;;;5083819;27;20470;-89
2022/10/16 08:30:33;;;;;;;7.37;5.43;;;21.80;70.10;;;;;;5123631;27;20480;-89
2022/10/16 08:33:00;;;;;;;5.27;3.90;;;21.80;70.30;;;;;;5098482;27;20485;-90
2022/10/16 08:35:27;;;;;;;4.37;3.97;;;21.90;71.10;;;;;;5104484;27;20975;-89
2022/10/16 08:37:55;;;;;;;9.87;6.10;;;22.10;70.20;;;;;;5119120;27;20438;-89
2022/10/16 08:40:25;;;;;;;5.87;5.07;;;22.10;70.00;;;;;;5116422;27;20490;-90
2022/10/16 08:43:05;;;;;;;3.63;3.43;;;21.80;68.80;;;;;;5115475;27;21047;-87
2022/10/16 08:45:49;;;;;;;4.17;2.40;;;21.80;69.90;;;;;;5118382;27;20875;-89
2022/10/16 08:48:23;;;;;;;5.80;3.23;;;22.00;69.90;;;;;;5100078;28;21077;-89
2022/10/16 08:50:53;;;;;;;3.10;2.90;;;22.10;69.80;;;;;;5091902;27;20485;-88
2022/10/16 08:53:25;;;;;;;2.43;2.23;;;22.20;69.90;;;;;;5104977;27;20534;-86
2022/10/16 08:55:54;;;;;;;3.90;2.37;;;21.80;69.40;;;;;;5125239;27;20831;-87
2022/10/16 08:58:23;;;;;;;7.80;4.90;;;21.70;70.70;;;;;;5118899;27;20451;-89
2022/10/16 09:00:55;;;;;;;4.10;3.67;;;21.80;70.80;;;;;;5097344;27;20473;-88
2022/10/16 09:03:39;;;;;;;2.63;2.43;;;22.10;70.70;;;;;;5116164;27;20478;-89
2022/10/16 09:06:33;;;;;;;6.20;4.20;;;22.10;71.20;;;;;;5098801;27;20448;-92
2022/10/16 09:09:34;;;;;;;3.00;2.60;;;22.20;70.90;;;;;;5113595;27;20442;-87
2022/10/16 09:12:09;;;;;;;12.33;7.47;;;22.40;70.00;;;;;;5083084;28;20478;-89
2022/10/16 09:14:44;;;;;;;3.50;3.20;;;22.40;69.60;;;;;;5087800;27;20544;-87
2022/10/16 09:17:35;;;;;;;2.77;2.57;;;22.30;69.00;;;;;;5097908;27;20530;-87
2022/10/16 09:20:16;;;;;;;2.67;2.47;;;22.30;68.50;;;;;;5102542;27;20450;-87
2022/10/16 09:22:43;;;;;;;3.70;2.10;;;22.30;68.70;;;;;;5089526;27;20446;-86
2022/10/16 09:25:14;;;;;;;2.17;1.97;;;22.40;68.60;;;;;;5114605;27;20438;-88
2022/10/16 09:27:41;;;;;;;3.73;3.43;;;22.40;68.40;;;;;;5106729;27;20537;-88
2022/10/16 09:30:14;;;;;;;108.10;50.07;;;22.40;68.70;;;;;;5105755;27;20979;-90
2022/10/16 09:32:44;;;;;;;16.83;9.10;;;22.40;69.10;;;;;;5099617;28;20459;-88
2022/10/16 09:35:15;;;;;;;8.50;5.43;;;22.30;69.40;;;;;;5090348;27;21004;-88
2022/10/16 09:37:45;;;;;;;13.73;9.50;;;22.40;69.70;;;;;;5109104;27;20476;-90
2022/10/16 09:40:14;;;;;;;7.70;3.30;;;22.40;69.70;;;;;;5105418;28;20454;-89
2022/10/16 09:42:41;;;;;;;5.00;3.23;;;22.50;69.70;;;;;;5115806;27;20490;-88
2022/10/16 09:45:23;;;;;;;6.10;3.70;;;22.50;69.60;;;;;;5118176;27;20481;-89
2022/10/16 09:47:52;;;;;;;5.17;3.50;;;22.50;69.60;;;;;;5098628;27;20427;-87
2022/10/16 09:50:26;;;;;;;3.20;2.90;;;22.50;69.70;;;;;;5101088;28;20492;-88
2022/10/16 09:53:11;;;;;;;6.87;4.97;;;22.50;69.60;;;;;;5118013;27;20480;-89
2022/10/16 09:55:49;;;;;;;2.90;2.63;;;22.50;69.70;;;;;;5116064;27;20961;-89
2022/10/16 09:58:16;;;;;;;3.50;3.30;;;22.30;70.10;;;;;;5091267;27;21013;-90
2022/10/16 10:00:49;;;;;;;4.10;3.00;;;22.40;70.10;;;;;;5107290;27;20898;-88
2022/10/16 10:03:34;;;;;;;4.67;3.10;;;22.40;69.90;;;;;;5109278;27;20454;-87
2022/10/16 10:06:17;;;;;;;3.00;2.80;;;22.50;69.80;;;;;;5089112;28;20482;-88
2022/10/16 10:08:59;;;;;;;10.40;3.13;;;22.50;69.80;;;;;;5088496;28;21159;-89
2022/10/16 10:11:54;;;;;;;11.83;4.90;;;22.50;70.00;;;;;;5087408;28;20469;-89
2022/10/16 10:14:23;;;;;;;6.93;4.77;;;22.00;72.00;;;;;;5079615;28;20454;-89
2022/10/16 10:16:52;;;;;;;6.47;3.30;;;22.10;71.40;;;;;;5097046;28;20482;-88
2022/10/16 10:19:22;;;;;;;12.43;7.50;;;22.10;71.20;;;;;;5098985;28;20530;-87
2022/10/16 10:21:49;;;;;;;8.50;5.43;;;22.10;70.80;;;;;;5084608;28;20557;-88
2022/10/16 10:24:18;;;;;;;2.57;2.37;;;21.80;71.70;;;;;;5098404;28;20512;-88
2022/10/16 10:26:55;;;;;;;4.43;2.67;;;21.50;72.30;;;;;;5086854;28;20446;-92
2022/10/16 10:29:36;;;;;;;3.87;2.50;;;21.60;72.50;;;;;;5089545;28;21141;-88
2022/10/16 10:32:12;;;;;;;2.43;1.90;;;21.60;72.70;;;;;;5106625;28;20462;-87
2022/10/16 10:34:59;;;;;;;1.77;1.63;;;21.80;72.40;;;;;;5089648;28;20565;-90
2022/10/16 10:37:45;;;;;;;3.60;2.20;;;21.80;70.60;;;;;;5116423;28;20458;-89
2022/10/16 10:40:24;;;;;;;2.73;2.27;;;21.90;71.40;;;;;;5111929;28;20446;-89
2022/10/16 10:42:58;;;;;;;2.27;2.07;;;22.10;70.70;;;;;;5080394;28;20514;-88
2022/10/16 10:45:29;;;;;;;2.73;2.40;;;22.30;70.70;;;;;;5087025;27;20438;-89
2022/10/16 10:48:20;;;;;;;3.00;2.03;;;22.30;70.20;;;;;;5091917;27;20514;-90
2022/10/16 10:50:53;;;;;;;2.10;1.90;;;22.50;69.80;;;;;;5104098;27;20474;-89
2022/10/16 10:53:33;;;;;;;3.10;1.97;;;22.80;69.50;;;;;;5125439;27;20526;-89
2022/10/16 10:56:14;;;;;;;5.03;2.30;;;22.50;69.20;;;;;;5121267;27;20451;-90
2022/10/16 10:59:02;;;;;;;5.00;2.10;;;22.60;70.60;;;;;;5093381;27;20584;-89
2022/10/16 11:01:39;;;;;;;2.50;1.73;;;22.70;70.00;;;;;;5104698;27;21031;-89
2022/10/16 11:04:46;;;;;;;2.03;1.93;;;22.90;68.60;;;;;;5122697;27;20441;-89
2022/10/16 11:07:19;;;;;;;5.40;2.50;;;23.10;68.70;;;;;;5089863;27;20951;-88
2022/10/16 11:09:50;;;;;;;3.33;2.40;;;23.30;68.90;;;;;;5119064;27;20478;-92
2022/10/16 11:12:21;;;;;;;6.53;3.30;;;23.30;68.40;;;;;;5107024;27;20498;-89
2022/10/16 11:14:57;;;;;;;5.00;3.50;;;23.10;69.30;;;;;;5108329;27;20802;-89
2022/10/16 11:17:29;;;;;;;3.83;2.70;;;23.30;68.30;;;;;;5085579;27;20437;-89
2022/10/16 11:20:02;;;;;;;6.20;3.00;;;23.50;67.70;;;;;;5107524;27;21030;-91
2022/10/16 11:22:36;;;;;;;13.10;4.70;;;23.60;68.00;;;;;;5093459;27;20492;-88
2022/10/16 11:25:15;;;;;;;7.03;2.33;;;23.80;67.80;;;;;;5116920;27;20534;-90
2022/10/16 11:27:48;;;;;;;3.30;1.97;;;23.50;67.40;;;;;;5115050;27;20446;-88
2022/10/16 11:30:19;;;;;;;2.00;1.70;;;23.60;67.40;;;;;;5109261;28;20557;-89
2022/10/16 11:33:05;;;;;;;2.80;1.60;;;23.80;66.20;;;;;;5100907;27;21064;-89
2022/10/16 11:35:41;;;;;;;2.53;1.63;;;23.70;67.20;;;;;;5108385;27;20438;-87
2022/10/16 11:38:15;;;;;;;2.73;2.10;;;23.70;67.00;;;;;;5115810;27;20488;-87
2022/10/16 11:40:48;;;;;;;1.93;1.83;;;23.80;67.40;;;;;;5116945;27;20477;-89
2022/10/16 11:43:22;;;;;;;2.33;1.90;;;23.90;66.10;;;;;;5108352;28;20466;-89
2022/10/16 11:45:53;;;;;;;3.43;2.10;;;24.30;65.80;;;;;;5100483;27;20434;-89
2022/10/16 11:48:26;;;;;;;3.07;1.80;;;24.30;65.50;;;;;;5103161;27;20438;-88
2022/10/16 11:50:55;;;;;;;5.77;1.97;;;24.30;65.00;;;;;;5116805;27;20480;-88
2022/10/16 11:53:39;;;;;;;1.90;1.60;;;24.40;64.60;;;;;;5106233;27;20462;-90
2022/10/16 11:56:07;;;;;;;2.70;1.77;;;24.60;66.20;;;;;;5102447;28;20431;-89
2022/10/16 11:58:38;;;;;;;1.87;1.60;;;24.90;64.90;;;;;;5113545;27;20441;-88
2022/10/16 12:01:18;;;;;;;1.70;1.47;;;25.10;63.60;;;;;;5102893;27;20477;-87
2022/10/16 12:03:51;;;;;;;1.47;1.37;;;25.30;63.70;;;;;;5119141;27;20526;-88
2022/10/16 12:06:32;;;;;;;3.63;1.40;;;25.50;61.40;;;;;;5106003;27;20538;-89
2022/10/16 12:09:01;;;;;;;9.83;1.60;;;25.70;61.50;;;;;;5124481;27;20567;-88
2022/10/16 12:11:38;;;;;;;2.00;1.53;;;26.00;63.70;;;;;;5115754;27;20561;-89
2022/10/16 12:14:08;;;;;;;1.50;1.40;;;26.10;61.50;;;;;;5116139;27;20970;-87
2022/10/16 12:16:39;;;;;;;1.50;1.40;;;26.00;59.60;;;;;;5120583;27;20447;-87
2022/10/16 12:19:13;;;;;;;2.50;1.50;;;26.10;59.50;;;;;;5114697;27;20870;-88
2022/10/16 12:21:40;;;;;;;7.20;2.00;;;25.80;59.30;;;;;;5110263;27;21116;-88
2022/10/16 12:24:23;;;;;;;3.63;1.67;;;25.60;61.10;;;;;;5115408;27;20450;-88
2022/10/16 12:26:52;;;;;;;2.13;1.60;;;25.80;61.30;;;;;;5114319;27;20511;-89
2022/10/16 12:29:29;;;;;;;2.60;1.90;;;26.00;61.60;;;;;;5111993;27;20449;-88
2022/10/16 12:31:56;;;;;;;2.20;1.43;;;26.20;60.40;;;;;;5115246;27;20501;-88
2022/10/16 12:34:28;;;;;;;3.27;1.70;;;26.10;59.60;;;;;;5116587;27;20929;-87
2022/10/16 12:36:56;;;;;;;1.60;1.50;;;25.70;60.80;;;;;;5114888;27;20450;-88
2022/10/16 12:39:26;;;;;;;1.73;1.50;;;25.70;61.30;;;;;;5111640;27;20458;-89
2022/10/16 12:42:02;;;;;;;2.03;1.60;;;25.70;61.80;;;;;;5110142;27;20498;-87
2022/10/16 12:44:34;;;;;;;3.00;1.77;;;25.30;59.50;;;;;;5114019;27;20446;-90
2022/10/16 12:47:01;;;;;;;3.33;2.30;;;25.60;61.70;;;;;;5115742;27;20446;-88
2022/10/16 12:49:37;;;;;;;2.53;1.60;;;25.70;59.60;;;;;;5117517;27;20454;-89
2022/10/16 12:52:05;;;;;;;1.93;1.60;;;25.70;59.50;;;;;;5115578;27;20484;-88
2022/10/16 12:54:38;;;;;;;2.43;1.80;;;25.80;60.50;;;;;;5113571;27;20446;-88
2022/10/16 12:57:23;;;;;;;2.23;1.50;;;26.10;60.30;;;;;;5110667;27;20450;-89
2022/10/16 12:59:57;;;;;;;2.20;1.40;;;26.20;60.10;;;;;;5113993;27;20913;-88
2022/10/16 13:02:57;;;;;;;3.67;1.43;;;26.20;59.10;;;;;;5111251;27;20803;-88
2022/10/16 13:05:45;;;;;;;1.60;1.47;;;26.30;57.90;;;;;;5115705;27;20442;-87